createdAt,value
2022-07-25T00:01:25.342Z,96427.97
2022-07-25T00:06:58.237Z,96397.50
2022-07-25T00:09:26.528Z,96429.56
2022-07-25T00:11:56.133Z,96381.50
2022-07-25T00:14:24.393Z,96398.69
2022-07-25T00:16:52.678Z,96430.00
2022-07-25T00:19:20.989Z,96429.47
2022-07-25T00:21:49.238Z,96359.84
2022-07-25T00:24:17.500Z,96376.53
2022-07-25T00:26:45.771Z,96419.50
2022-07-25T00:29:15.371Z,96383.19
2022-07-25T00:31:43.604Z,96418.00
2022-07-25T00:34:12.023Z,96379.78
2022-07-25T00:36:40.331Z,96366.44
2022-07-25T00:39:08.621Z,96384.19
2022-07-25T00:41:37.500Z,96397.41
2022-07-25T00:44:06.537Z,96388.78
2022-07-25T00:46:39.802Z,96336.78
2022-07-25T00:49:09.729Z,96345.66
2022-07-25T00:51:37.957Z,96353.44
2022-07-25T00:54:06.838Z,96358.03
2022-07-25T00:56:35.685Z,96327.78
2022-07-25T00:59:03.984Z,96324.97
2022-07-25T01:01:37.934Z,96387.19
2022-07-25T01:04:08.871Z,96388.34
2022-07-25T01:06:37.494Z,96285.50
2022-07-25T01:09:05.944Z,96345.50
2022-07-25T01:11:34.948Z,96331.50
2022-07-25T01:14:03.544Z,96361.09
2022-07-25T01:16:32.010Z,96336.09
2022-07-25T01:19:01.772Z,96378.78
2022-07-25T01:21:31.560Z,96355.31
2022-07-25T01:23:59.914Z,96375.53
2022-07-25T01:26:28.544Z,96369.88
2022-07-25T01:28:57.085Z,96370.44
2022-07-25T01:31:30.796Z,96358.19
2022-07-25T01:33:59.119Z,96377.84
2022-07-25T01:36:27.598Z,96370.13
2022-07-25T01:38:57.131Z,96300.06
2022-07-25T01:41:25.363Z,96373.50
2022-07-25T01:43:53.575Z,96310.00
2022-07-25T01:46:21.824Z,96352.09
2022-07-25T01:48:50.273Z,96341.25
2022-07-25T01:51:20.613Z,96345.00
2022-07-25T01:53:48.978Z,96347.94
2022-07-25T01:56:18.941Z,96323.03
2022-07-25T01:58:50.840Z,96388.69
2022-07-25T02:01:19.113Z,96370.16
2022-07-25T02:03:51.247Z,96340.59
2022-07-25T02:06:20.929Z,96365.44
2022-07-25T02:08:49.225Z,96353.69
2022-07-25T02:11:19.632Z,96353.56
2022-07-25T02:13:47.963Z,96345.69
2022-07-25T02:16:16.179Z,96343.50
2022-07-25T02:18:45.753Z,96347.56
2022-07-25T02:21:14.750Z,96337.47
2022-07-25T02:23:44.185Z,96422.53
2022-07-25T02:26:13.629Z,96380.44
2022-07-25T02:28:43.266Z,96354.34
2022-07-25T02:31:11.971Z,96370.44
2022-07-25T02:33:40.284Z,96357.22
2022-07-25T02:36:09.987Z,96336.50
2022-07-25T02:38:38.394Z,96346.78
2022-07-25T02:41:07.210Z,96310.34
2022-07-25T02:43:35.650Z,96351.09
2022-07-25T02:46:05.311Z,96326.88
2022-07-25T02:48:33.753Z,96322.72
2022-07-25T02:51:02.072Z,96303.78
2022-07-25T02:53:54.811Z,96308.56
2022-07-25T02:56:18.866Z,96311.03
2022-07-25T02:58:49.618Z,96304.19
2022-07-25T03:01:19.247Z,96295.78
2022-07-25T03:03:47.726Z,96312.38
2022-07-25T03:06:16.300Z,96323.19
2022-07-25T03:08:44.548Z,96278.97
2022-07-25T03:11:13.492Z,96278.28
2022-07-25T03:13:41.737Z,96304.09
2022-07-25T03:16:10.743Z,96347.88
2022-07-25T03:18:40.467Z,96303.63
2022-07-25T03:21:09.395Z,96256.53
2022-07-25T03:23:37.670Z,96333.50
2022-07-25T03:26:06.196Z,96317.50
2022-07-25T03:28:34.461Z,96346.59
2022-07-25T03:31:02.843Z,96330.22
2022-07-25T03:33:31.310Z,96273.78
2022-07-25T03:36:00.905Z,96301.63
2022-07-25T03:38:30.292Z,96275.41
2022-07-25T03:40:58.610Z,96252.09
2022-07-25T03:43:26.878Z,96252.97
2022-07-25T03:45:55.325Z,96267.47
2022-07-25T03:48:23.657Z,96295.84
2022-07-25T03:50:51.947Z,96286.81
2022-07-25T03:53:21.565Z,96225.69
2022-07-25T03:55:49.930Z,96293.56
2022-07-25T03:58:18.284Z,96286.88
2022-07-25T04:00:47.965Z,96276.97
2022-07-25T04:03:16.797Z,96285.25
2022-07-25T04:05:47.585Z,96162.75
2022-07-25T04:08:16.180Z,96240.53
2022-07-25T04:10:45.817Z,96290.81
2022-07-25T04:13:14.075Z,96307.31
2022-07-25T04:15:42.334Z,96220.69
2022-07-25T04:18:13.178Z,96266.72
2022-07-25T04:20:46.817Z,96292.06
2022-07-25T04:23:15.195Z,96227.72
2022-07-25T04:25:44.801Z,96260.84
2022-07-25T04:28:13.036Z,96257.50
2022-07-25T04:30:41.346Z,96243.94
2022-07-25T04:33:10.282Z,96234.66
2022-07-25T04:35:38.662Z,96235.63
2022-07-25T04:38:11.909Z,96233.94
2022-07-25T04:40:40.638Z,96221.56
2022-07-25T04:43:11.105Z,96230.69
2022-07-25T04:45:40.731Z,96260.28
2022-07-25T04:48:09.747Z,96207.59
2022-07-25T04:50:38.127Z,96311.81
2022-07-25T04:53:06.755Z,96239.94
2022-07-25T04:55:36.297Z,96231.81
2022-07-25T04:58:04.544Z,96192.28
2022-07-25T05:00:34.729Z,96247.81
2022-07-25T05:03:03.074Z,96232.84
2022-07-25T05:05:31.310Z,96219.16
2022-07-25T05:08:01.042Z,96216.13
2022-07-25T05:10:54.989Z,96216.94
2022-07-25T05:13:23.296Z,96193.06
2022-07-25T05:15:53.111Z,96241.19
2022-07-25T05:18:21.996Z,96213.00
2022-07-25T05:20:50.273Z,96221.47
2022-07-25T05:23:18.504Z,96205.97
2022-07-25T05:25:47.432Z,96218.56
2022-07-25T05:28:15.843Z,96229.50
2022-07-25T05:30:44.286Z,96110.00
2022-07-25T05:33:13.936Z,96229.78
2022-07-25T05:35:42.338Z,96253.06
2022-07-25T05:38:10.559Z,96230.56
2022-07-25T05:40:38.785Z,96242.19
2022-07-25T05:43:06.987Z,96197.94
2022-07-25T05:45:35.252Z,96224.19
2022-07-25T05:48:03.427Z,96220.34
2022-07-25T05:50:33.101Z,96166.66
2022-07-25T05:53:01.305Z,96221.03
2022-07-25T05:55:29.596Z,96242.44
2022-07-25T05:57:57.889Z,96213.75
2022-07-25T06:00:26.893Z,96196.22
2022-07-25T06:02:55.270Z,96204.94
2022-07-25T06:05:33.163Z,96254.66
2022-07-25T06:08:01.440Z,96163.44
2022-07-25T06:10:29.637Z,96194.13
2022-07-25T06:12:57.844Z,96177.66
2022-07-25T06:15:26.828Z,96203.81
2022-07-25T06:17:55.789Z,96157.41
2022-07-25T06:20:24.174Z,96151.56
2022-07-25T06:22:53.830Z,96225.97
2022-07-25T06:25:22.960Z,96158.69
2022-07-25T06:27:51.173Z,96215.84
2022-07-25T06:30:20.614Z,96186.53
2022-07-25T06:32:49.405Z,96221.88
2022-07-25T06:35:17.996Z,96219.25
2022-07-25T06:37:46.389Z,96243.28
2022-07-25T06:40:16.100Z,96155.44
2022-07-25T06:42:46.575Z,96104.22
2022-07-25T06:45:16.475Z,96188.13
2022-07-25T06:47:46.406Z,96142.28
2022-07-25T06:50:18.502Z,96161.72
2022-07-25T06:52:49.626Z,96198.94
2022-07-25T06:55:19.218Z,96185.44
2022-07-25T06:57:47.550Z,96163.34
2022-07-25T07:00:16.460Z,96170.31
2022-07-25T07:02:55.889Z,96180.81
2022-07-25T07:05:25.511Z,96186.47
2022-07-25T07:07:54.206Z,96167.28
2022-07-25T07:10:24.651Z,96147.25
2022-07-25T07:13:04.164Z,96207.94
2022-07-25T07:15:34.023Z,96146.03
2022-07-25T07:18:02.241Z,96181.38
2022-07-25T07:20:30.675Z,96166.66
2022-07-25T07:22:58.881Z,96178.50
2022-07-25T07:25:28.665Z,96176.00
2022-07-25T07:27:56.910Z,96151.44
2022-07-25T07:30:36.760Z,96179.38
2022-07-25T07:33:13.629Z,96125.22
2022-07-25T07:35:44.696Z,96149.44
2022-07-25T07:38:13.031Z,96116.19
2022-07-25T07:40:42.617Z,96098.47
2022-07-25T07:43:10.959Z,96060.81
2022-07-25T07:45:39.273Z,96050.06
2022-07-25T07:48:08.310Z,96145.25
2022-07-25T07:50:37.452Z,96132.19
2022-07-25T07:53:06.736Z,96132.34
2022-07-25T07:55:46.481Z,96134.50
2022-07-25T07:58:19.569Z,96127.31
2022-07-25T08:00:51.026Z,96093.84
2022-07-25T08:03:21.227Z,96102.13
2022-07-25T08:05:51.846Z,96071.16
2022-07-25T08:08:20.546Z,96120.22
2022-07-25T08:10:51.230Z,96109.03
2022-07-25T08:13:25.811Z,96108.47
2022-07-25T08:15:57.902Z,96135.16
2022-07-25T08:18:27.516Z,96143.59
2022-07-25T08:20:56.786Z,96058.72
2022-07-25T08:23:27.752Z,96084.78
2022-07-25T08:25:56.078Z,96048.63
2022-07-25T08:28:25.727Z,96134.25
2022-07-25T08:30:54.362Z,96124.31
2022-07-25T08:33:22.879Z,96057.28
2022-07-25T08:35:54.919Z,96130.53
2022-07-25T08:38:26.660Z,96096.50
2022-07-25T08:40:55.587Z,96062.81
2022-07-25T08:43:25.340Z,96126.56
2022-07-25T08:45:55.536Z,96087.94
2022-07-25T08:48:26.692Z,96095.41
2022-07-25T08:50:57.314Z,96076.47
2022-07-25T08:53:35.625Z,96055.34
2022-07-25T08:56:20.465Z,96087.41
2022-07-25T08:58:50.898Z,96065.03
2022-07-25T09:01:19.241Z,96050.03
2022-07-25T09:03:47.480Z,96057.22
2022-07-25T09:06:21.466Z,96077.91
2022-07-25T09:08:55.604Z,96061.91
2022-07-25T09:11:32.701Z,96121.84
2022-07-25T09:14:08.435Z,96089.50
2022-07-25T09:16:41.377Z,96078.31
2022-07-25T09:19:11.928Z,96059.84
2022-07-25T09:21:41.603Z,95982.53
2022-07-25T09:24:13.432Z,96058.06
2022-07-25T09:26:47.504Z,96026.09
2022-07-25T09:29:27.797Z,96044.72
2022-07-25T09:31:59.291Z,96019.75
2022-07-25T09:34:37.890Z,96070.47
2022-07-25T09:37:08.789Z,96053.34
2022-07-25T09:39:46.056Z,96072.41
2022-07-25T09:42:36.246Z,96045.16
2022-07-25T09:45:11.383Z,96054.28
2022-07-25T09:47:53.197Z,96073.91
2022-07-25T09:50:23.758Z,96084.41
2022-07-25T09:52:54.951Z,96029.41
2022-07-25T09:55:23.991Z,96040.50
2022-07-25T09:57:53.550Z,95955.19
2022-07-25T10:00:26.044Z,96092.78
2022-07-25T10:03:12.967Z,96032.47
2022-07-25T10:06:00.306Z,96083.38
2022-07-25T10:08:29.563Z,96025.03
2022-07-25T10:10:58.169Z,96081.84
2022-07-25T10:13:35.264Z,96073.50
2022-07-25T10:16:17.497Z,96047.09
2022-07-25T10:18:54.705Z,95978.03
2022-07-25T10:21:27.471Z,96056.63
2022-07-25T10:26:55.098Z,96037.94
2022-07-25T10:29:23.330Z,96062.91
2022-07-25T10:31:52.965Z,96048.56
2022-07-25T10:34:31.604Z,96024.78
2022-07-25T10:37:11.987Z,96011.59
2022-07-25T10:39:42.719Z,95977.53
2022-07-25T10:42:15.372Z,96025.31
2022-07-25T10:44:46.581Z,96055.00
2022-07-25T10:47:17.132Z,96024.69
2022-07-25T10:50:16.427Z,96043.28
2022-07-25T10:52:43.019Z,96061.91
2022-07-25T10:55:11.433Z,95999.91
2022-07-25T10:57:49.947Z,96026.53
2022-07-25T11:00:23.466Z,96030.84
2022-07-25T11:02:57.709Z,96013.72
2022-07-25T11:05:26.284Z,95992.84
2022-07-25T11:08:20.275Z,96032.16
2022-07-25T11:10:53.667Z,96022.78
2022-07-25T11:13:22.384Z,96033.59
2022-07-25T11:15:51.136Z,96053.31
2022-07-25T11:18:20.732Z,95972.44
2022-07-25T11:21:02.993Z,96014.50
2022-07-25T11:23:34.532Z,96006.28
2022-07-25T11:26:11.168Z,96009.06
2022-07-25T11:28:42.041Z,96000.22
2022-07-25T11:31:11.877Z,95994.94
2022-07-25T11:33:45.237Z,95986.59
2022-07-25T11:36:14.011Z,95971.50
2022-07-25T11:38:42.735Z,96017.38
2022-07-25T11:41:11.295Z,95991.91
2022-07-25T11:43:39.553Z,95993.63
2022-07-25T11:46:08.821Z,95958.16
2022-07-25T11:48:40.045Z,95944.63
2022-07-25T11:51:19.402Z,95974.97
2022-07-25T11:53:51.132Z,96020.06
2022-07-25T11:59:10.044Z,95934.41
2022-07-25T12:01:41.268Z,95967.50
2022-07-25T12:04:15.304Z,96031.97
2022-07-25T12:06:47.218Z,95963.47
2022-07-25T12:09:19.619Z,95962.31
2022-07-25T12:11:49.668Z,95948.69
2022-07-25T12:14:18.047Z,96010.41
2022-07-25T12:16:46.390Z,95942.69
2022-07-25T12:19:24.099Z,95940.81
2022-07-25T12:21:53.704Z,95980.66
2022-07-25T12:24:21.919Z,95945.50
2022-07-25T12:26:50.154Z,95949.50
2022-07-25T12:29:18.387Z,95969.91
2022-07-25T12:31:46.581Z,95964.63
2022-07-25T12:34:14.774Z,95921.03
2022-07-25T12:36:45.222Z,95954.38
2022-07-25T12:39:14.960Z,95935.06
2022-07-25T12:41:43.239Z,95950.59
2022-07-25T12:44:11.806Z,95973.91
2022-07-25T12:46:44.713Z,95939.66
2022-07-25T12:49:17.277Z,95916.59
2022-07-25T12:51:45.570Z,95951.78
2022-07-25T12:54:21.634Z,95937.25
2022-07-25T12:56:51.492Z,95964.31
2022-07-25T12:59:19.975Z,95929.19
2022-07-25T13:01:48.319Z,96148.63
2022-07-25T13:04:16.816Z,95903.88
2022-07-25T13:06:45.138Z,95869.69
2022-07-25T13:09:14.731Z,95915.25
2022-07-25T13:11:43.404Z,95905.66
2022-07-25T13:14:11.747Z,95885.63
2022-07-25T13:16:40.140Z,95875.44
2022-07-25T13:19:09.211Z,95937.31
2022-07-25T13:21:37.760Z,95874.47
2022-07-25T13:24:08.031Z,95885.06
2022-07-25T13:26:39.301Z,95907.44
2022-07-25T13:29:11.721Z,95917.38
2022-07-25T13:31:41.678Z,95908.13
2022-07-25T13:34:10.791Z,95760.59
2022-07-25T13:36:40.554Z,95929.56
2022-07-25T13:39:09.229Z,95938.31
2022-07-25T13:41:39.079Z,95956.44
2022-07-25T13:47:30.238Z,95904.38
2022-07-25T13:49:58.827Z,95912.56
2022-07-25T13:52:27.016Z,95871.03
2022-07-25T13:54:55.297Z,95924.34
2022-07-25T13:57:25.926Z,95919.53
2022-07-25T13:59:54.638Z,95983.34
2022-07-25T14:02:22.860Z,95910.22
2022-07-25T14:04:51.537Z,95931.72
2022-07-25T14:07:19.780Z,95941.78
2022-07-25T14:09:48.420Z,95897.25
2022-07-25T14:12:16.653Z,95923.22
2022-07-25T14:14:46.220Z,95885.06
2022-07-25T14:17:14.506Z,95891.00
2022-07-25T14:19:42.792Z,95939.22
2022-07-25T14:22:11.137Z,95932.81
2022-07-25T14:24:39.857Z,95937.16
2022-07-25T14:27:08.110Z,95904.78
2022-07-25T14:29:37.960Z,95861.97
2022-07-25T14:32:09.639Z,95882.63
2022-07-25T14:34:40.380Z,95880.97
2022-07-25T14:37:09.377Z,95878.00
2022-07-25T14:39:37.847Z,96017.56
2022-07-25T14:42:06.212Z,95904.47
2022-07-25T14:44:34.427Z,95887.97
2022-07-25T14:47:12.770Z,95902.69
2022-07-25T14:49:42.036Z,95925.78
2022-07-25T14:52:11.426Z,95892.56
2022-07-25T14:54:41.173Z,95837.28
2022-07-25T14:57:10.049Z,95911.22
2022-07-25T14:59:38.404Z,95889.53
2022-07-25T15:02:06.614Z,95886.34
2022-07-25T15:04:36.297Z,95891.16
2022-07-25T15:07:04.691Z,95883.56
2022-07-25T15:09:32.944Z,95954.50
2022-07-25T15:12:01.154Z,95885.91
2022-07-25T15:14:29.406Z,95924.50
2022-07-25T15:16:57.718Z,95920.22
2022-07-25T15:19:26.439Z,95880.53
2022-07-25T15:21:56.222Z,95922.56
2022-07-25T15:24:28.933Z,95865.88
2022-07-25T15:26:58.058Z,95935.84
2022-07-25T15:29:27.788Z,95884.41
2022-07-25T15:31:56.182Z,95886.63
2022-07-25T15:34:24.493Z,95872.81
2022-07-25T15:36:52.811Z,95900.69
2022-07-25T15:39:23.165Z,95887.66
2022-07-25T15:41:51.456Z,96041.75
2022-07-25T15:44:19.716Z,95882.34
2022-07-25T15:46:48.053Z,95920.09
2022-07-25T15:49:16.503Z,95918.75
2022-07-25T15:51:44.781Z,95937.63
2022-07-25T15:54:13.331Z,95902.09
2022-07-25T15:56:42.992Z,95912.06
2022-07-25T15:59:11.229Z,95959.78
2022-07-25T16:01:39.484Z,95921.31
2022-07-25T16:04:08.172Z,95874.72
2022-07-25T16:06:36.503Z,95925.03
2022-07-25T16:09:05.609Z,95920.41
2022-07-25T16:11:35.619Z,95938.88
2022-07-25T16:14:05.393Z,95871.41
2022-07-25T16:16:33.894Z,95901.06
2022-07-25T16:19:03.266Z,95928.88
2022-07-25T16:21:31.779Z,95881.03
2022-07-25T16:23:59.949Z,95926.38
2022-07-25T16:26:28.138Z,95875.81
2022-07-25T16:28:57.864Z,95895.47
2022-07-25T16:31:27.599Z,95830.94
2022-07-25T16:33:55.918Z,95900.81
2022-07-25T16:36:25.366Z,95921.19
2022-07-25T16:38:53.669Z,95823.34
2022-07-25T16:41:21.993Z,95884.72
2022-07-25T16:43:50.202Z,95930.97
2022-07-25T16:46:18.532Z,95862.03
2022-07-25T16:48:48.322Z,95920.09
2022-07-25T16:51:16.897Z,95925.97
2022-07-25T16:53:45.128Z,95958.00
2022-07-25T16:56:13.443Z,95924.22
2022-07-25T16:58:41.661Z,95943.16
2022-07-25T17:01:09.977Z,95883.16
2022-07-25T17:03:38.156Z,95896.22
2022-07-25T17:06:08.504Z,95883.44
2022-07-25T17:08:39.047Z,95905.25
2022-07-25T17:11:08.497Z,95875.78
2022-07-25T17:13:36.935Z,95921.34
2022-07-25T17:16:06.607Z,95949.75
2022-07-25T17:18:34.989Z,95914.06
2022-07-25T17:21:03.218Z,95910.75
2022-07-25T17:23:33.278Z,95881.31
2022-07-25T17:26:01.586Z,95891.06
2022-07-25T17:28:29.952Z,95873.19
2022-07-25T17:30:58.222Z,95928.78
2022-07-25T17:33:26.499Z,95901.13
2022-07-25T17:35:54.784Z,95922.03
2022-07-25T17:38:26.890Z,95898.63
2022-07-25T17:40:57.291Z,95915.19
2022-07-25T17:43:25.538Z,95914.50
2022-07-25T17:45:53.978Z,95905.44
2022-07-25T17:48:22.213Z,95892.69
2022-07-25T17:50:53.366Z,95903.13
2022-07-25T17:53:21.564Z,95856.03
2022-07-25T17:55:49.877Z,95951.56
2022-07-25T17:58:19.481Z,95870.00
2022-07-25T18:00:47.708Z,95889.69
2022-07-25T18:03:20.225Z,95845.19
2022-07-25T18:05:48.470Z,95890.88
2022-07-25T18:08:16.656Z,95900.66
2022-07-25T18:10:45.149Z,95913.59
2022-07-25T18:13:14.707Z,95879.22
2022-07-25T18:15:44.410Z,95921.31
2022-07-25T18:18:16.988Z,95900.31
2022-07-25T18:20:48.310Z,95888.66
2022-07-25T18:23:16.563Z,95943.94
2022-07-25T18:25:45.678Z,95820.16
2022-07-25T18:28:14.079Z,95921.41
2022-07-25T18:30:43.819Z,95881.03
2022-07-25T18:33:12.228Z,95925.16
2022-07-25T18:35:40.584Z,95921.63
2022-07-25T18:38:09.500Z,95895.44
2022-07-25T18:40:37.744Z,95888.38
2022-07-25T18:43:08.717Z,95915.09
2022-07-25T18:45:37.901Z,95930.53
2022-07-25T18:48:08.645Z,95931.63
2022-07-25T18:50:36.990Z,95956.00
2022-07-25T18:53:05.227Z,95943.72
2022-07-25T18:55:33.803Z,95916.75
2022-07-25T18:58:02.125Z,95953.06
2022-07-25T19:00:30.370Z,95960.75
2022-07-25T19:02:58.638Z,95990.25
2022-07-25T19:05:29.025Z,95918.25
2022-07-25T19:08:00.721Z,95982.66
2022-07-25T19:10:29.052Z,95945.03
2022-07-25T19:12:57.287Z,95961.56
2022-07-25T19:15:27.920Z,95982.91
2022-07-25T19:17:56.261Z,95964.97
2022-07-25T19:20:25.084Z,95990.97
2022-07-25T19:22:54.675Z,96022.06
2022-07-25T19:25:23.268Z,95999.63
2022-07-25T19:27:51.596Z,96027.38
2022-07-25T19:30:19.931Z,96016.88
2022-07-25T19:32:48.628Z,96032.50
2022-07-25T19:35:24.084Z,96057.53
2022-07-25T19:37:55.617Z,96028.06
2022-07-25T19:40:24.038Z,96079.94
2022-07-25T19:42:52.236Z,96068.63
2022-07-25T19:45:20.889Z,96037.44
2022-07-25T19:47:49.139Z,96065.00
2022-07-25T19:50:17.448Z,95989.69
2022-07-25T19:52:45.849Z,96056.91
2022-07-25T19:55:15.523Z,96089.94
2022-07-25T19:57:43.958Z,96119.06
2022-07-25T20:00:13.561Z,96059.72
2022-07-25T20:02:43.314Z,96081.03
2022-07-25T20:05:12.304Z,96116.38
2022-07-25T20:07:40.576Z,96063.28
2022-07-25T20:10:11.209Z,96096.44
2022-07-25T20:12:42.852Z,96100.53
2022-07-25T20:15:11.670Z,96106.97
2022-07-25T20:17:40.331Z,96070.56
2022-07-25T20:20:10.222Z,96104.03
2022-07-25T20:22:38.637Z,96056.56
2022-07-25T20:25:08.098Z,96084.63
2022-07-25T20:27:37.167Z,96113.72
2022-07-25T20:30:10.012Z,96150.41
2022-07-25T20:32:39.020Z,96082.47
2022-07-25T20:35:08.841Z,96163.31
2022-07-25T20:37:37.189Z,96110.75
2022-07-25T20:40:07.525Z,96145.00
2022-07-25T20:42:38.011Z,96151.19
2022-07-25T20:45:09.578Z,96126.09
2022-07-25T20:47:37.848Z,96159.50
2022-07-25T20:50:07.126Z,96119.63
2022-07-25T20:52:35.532Z,96175.66
2022-07-25T20:55:06.859Z,96201.22
2022-07-25T20:57:35.683Z,96164.28
2022-07-25T21:00:05.569Z,96137.84
2022-07-25T21:02:35.632Z,96115.50
2022-07-25T21:05:04.155Z,96183.03
2022-07-25T21:07:32.357Z,96173.63
2022-07-25T21:10:08.106Z,96195.44
2022-07-25T21:12:37.461Z,96198.59
2022-07-25T21:15:08.665Z,96211.00
2022-07-25T21:17:38.267Z,96161.38
2022-07-25T21:20:08.727Z,96135.00
2022-07-25T21:22:37.327Z,96134.47
2022-07-25T21:25:07.089Z,96199.59
2022-07-25T21:27:35.591Z,96167.22
2022-07-25T21:30:04.825Z,96182.88
2022-07-25T21:32:33.243Z,96174.22
2022-07-25T21:35:02.819Z,96220.47
2022-07-25T21:37:31.098Z,96191.44
2022-07-25T21:39:59.749Z,96244.50
2022-07-25T21:42:28.064Z,96259.88
2022-07-25T21:44:57.228Z,96181.44
2022-07-25T21:47:25.433Z,96244.72
2022-07-25T21:50:11.481Z,96197.44
2022-07-25T21:52:43.151Z,96153.41
2022-07-25T21:55:11.479Z,96212.66
2022-07-25T21:57:39.723Z,96294.53
2022-07-25T22:00:12.176Z,96261.72
2022-07-25T22:02:43.291Z,96248.34
2022-07-25T22:05:12.308Z,96197.50
2022-07-25T22:07:42.023Z,96272.31
2022-07-25T22:10:12.767Z,96242.75
2022-07-25T22:12:42.215Z,96249.13
2022-07-25T22:15:12.661Z,96254.75
2022-07-25T22:17:48.419Z,96275.44
2022-07-25T22:20:18.770Z,96235.50
2022-07-25T22:22:49.260Z,96246.94
2022-07-25T22:25:17.864Z,96224.16
2022-07-25T22:27:46.135Z,96244.63
2022-07-25T22:30:19.124Z,96260.84
2022-07-25T22:32:48.591Z,96294.50
2022-07-25T22:35:17.141Z,96191.50
2022-07-25T22:37:46.460Z,96247.03
2022-07-25T22:40:16.376Z,96307.28
2022-07-25T22:42:44.740Z,96224.84
2022-07-25T22:45:13.743Z,96294.78
2022-07-25T22:47:42.060Z,96306.31
2022-07-25T22:50:11.308Z,96299.81
2022-07-25T22:52:39.565Z,96269.13
2022-07-25T22:55:08.585Z,96270.84
2022-07-25T22:57:38.183Z,96299.41
2022-07-25T23:00:11.007Z,96331.09
2022-07-25T23:02:40.378Z,96308.31
2022-07-25T23:05:10.108Z,96329.47
2022-07-25T23:07:38.625Z,96320.38
2022-07-25T23:10:08.385Z,96328.38
2022-07-25T23:12:38.016Z,96307.56
2022-07-25T23:15:07.459Z,96306.25
2022-07-25T23:17:36.060Z,96306.88
2022-07-25T23:20:06.950Z,96373.44
2022-07-25T23:22:35.360Z,96341.66
2022-07-25T23:25:03.612Z,96310.50
2022-07-25T23:27:33.220Z,96295.25
2022-07-25T23:30:05.806Z,96348.09
2022-07-25T23:32:34.933Z,96288.28
2022-07-25T23:35:03.395Z,96301.75
2022-07-25T23:37:31.653Z,96355.44
2022-07-25T23:39:59.893Z,96305.41
2022-07-25T23:42:28.225Z,96338.94
2022-07-25T23:44:56.423Z,96345.94
2022-07-25T23:47:36.736Z,96338.69
2022-07-25T23:50:10.676Z,96287.41
2022-07-25T23:52:38.954Z,96374.41
2022-07-25T23:55:07.879Z,96314.03
2022-07-25T23:57:36.514Z,96297.88
